sensor_id;sensor_type;location;lat;lon;timestamp;P1;durP1;ratioP1;P2;durP2;ratioP2
43744;SDS011;29359;53.048;8.732;2022-11-18T00:00:07;6.30;;;5.57;;
43744;SDS011;29359;53.048;8.732;2022-11-18T00:02:09;6.32;;;5.60;;
43744;SDS011;29359;53.048;8.732;2022-11-18T00:04:11;6.57;;;5.75;;
43744;SDS011;29359;53.048;8.732;2022-11-18T00:06:13;6.32;;;5.72;;
43744;SDS011;29359;53.048;8.732;2022-11-18T00:08:23;6.97;;;5.63;;
43744;SDS011;29359;53.048;8.732;2022-11-18T00:10:25;6.25;;;5.45;;
43744;SDS011;29359;53.048;8.732;2022-11-18T00:12:27;7.13;;;6.32;;
43744;SDS011;29359;53.048;8.732;2022-11-18T00:14:47;5.88;;;5.30;;
43744;SDS011;29359;53.048;8.732;2022-11-18T00:16:55;6.80;;;5.75;;
43744;SDS011;29359;53.048;8.732;2022-11-18T00:19:01;7.00;;;5.97;;
43744;SDS011;29359;53.048;8.732;2022-11-18T00:21:04;7.47;;;5.93;;
43744;SDS011;29359;53.048;8.732;2022-11-18T00:23:07;6.78;;;6.07;;
43744;SDS011;29359;53.048;8.732;2022-11-18T00:25:09;8.63;;;6.32;;
43744;SDS011;29359;53.048;8.732;2022-11-18T00:27:10;6.50;;;5.90;;
43744;SDS011;29359;53.048;8.732;2022-11-18T00:29:12;8.20;;;6.03;;
43744;SDS011;29359;53.048;8.732;2022-11-18T00:31:13;6.88;;;6.07;;
43744;SDS011;29359;53.048;8.732;2022-11-18T00:33:15;7.13;;;6.43;;
43744;SDS011;29359;53.048;8.732;2022-11-18T00:35:16;6.97;;;6.30;;
43744;SDS011;29359;53.048;8.732;2022-11-18T00:37:18;8.73;;;7.10;;
43744;SDS011;29359;53.048;8.732;2022-11-18T00:39:19;6.82;;;6.13;;
43744;SDS011;29359;53.048;8.732;2022-11-18T00:41:22;6.90;;;6.22;;
43744;SDS011;29359;53.048;8.732;2022-11-18T00:43:24;7.60;;;6.68;;
43744;SDS011;29359;53.048;8.732;2022-11-18T00:45:25;6.72;;;6.13;;
43744;SDS011;29359;53.048;8.732;2022-11-18T00:47:27;6.85;;;6.15;;
43744;SDS011;29359;53.048;8.732;2022-11-18T00:49:28;7.85;;;7.00;;
43744;SDS011;29359;53.048;8.732;2022-11-18T00:51:30;7.25;;;6.50;;
43744;SDS011;29359;53.048;8.732;2022-11-18T00:53:31;8.32;;;6.18;;
43744;SDS011;29359;53.048;8.732;2022-11-18T00:55:32;7.47;;;6.07;;
43744;SDS011;29359;53.048;8.732;2022-11-18T00:57:34;7.60;;;6.65;;
43744;SDS011;29359;53.048;8.732;2022-11-18T00:59:35;7.38;;;6.43;;
43744;SDS011;29359;53.048;8.732;2022-11-18T01:01:37;7.07;;;6.20;;
43744;SDS011;29359;53.048;8.732;2022-11-18T01:03:38;7.80;;;6.93;;
43744;SDS011;29359;53.048;8.732;2022-11-18T01:05:40;7.75;;;6.88;;
43744;SDS011;29359;53.048;8.732;2022-11-18T01:07:41;8.68;;;7.25;;
43744;SDS011;29359;53.048;8.732;2022-11-18T01:09:43;7.63;;;6.82;;
43744;SDS011;29359;53.048;8.732;2022-11-18T01:11:44;10.93;;;6.82;;
43744;SDS011;29359;53.048;8.732;2022-11-18T01:14:04;9.88;;;7.78;;
43744;SDS011;29359;53.048;8.732;2022-11-18T01:16:06;8.38;;;7.32;;
43744;SDS011;29359;53.048;8.732;2022-11-18T01:18:08;10.23;;;7.15;;
43744;SDS011;29359;53.048;8.732;2022-11-18T01:20:10;7.97;;;7.18;;
43744;SDS011;29359;53.048;8.732;2022-11-18T01:22:11;10.70;;;7.05;;
43744;SDS011;29359;53.048;8.732;2022-11-18T01:24:13;9.75;;;7.10;;
43744;SDS011;29359;53.048;8.732;2022-11-18T01:26:15;10.10;;;7.63;;
43744;SDS011;29359;53.048;8.732;2022-11-18T01:28:17;8.50;;;6.72;;
43744;SDS011;29359;53.048;8.732;2022-11-18T01:30:24;8.60;;;6.68;;
43744;SDS011;29359;53.048;8.732;2022-11-18T01:32:26;10.50;;;7.82;;
43744;SDS011;29359;53.048;8.732;2022-11-18T01:34:28;8.38;;;6.90;;
43744;SDS011;29359;53.048;8.732;2022-11-18T01:36:30;8.07;;;7.28;;
43744;SDS011;29359;53.048;8.732;2022-11-18T01:38:31;8.18;;;7.22;;
43744;SDS011;29359;53.048;8.732;2022-11-18T01:40:33;10.10;;;7.45;;
43744;SDS011;29359;53.048;8.732;2022-11-18T01:42:35;8.30;;;6.55;;
43744;SDS011;29359;53.048;8.732;2022-11-18T01:44:55;7.50;;;6.63;;
43744;SDS011;29359;53.048;8.732;2022-11-18T01:46:59;7.15;;;6.45;;
43744;SDS011;29359;53.048;8.732;2022-11-18T01:51:10;10.15;;;7.07;;
43744;SDS011;29359;53.048;8.732;2022-11-18T01:53:16;7.80;;;6.80;;
43744;SDS011;29359;53.048;8.732;2022-11-18T01:55:23;8.23;;;6.75;;
43744;SDS011;29359;53.048;8.732;2022-11-18T01:57:27;8.48;;;6.90;;
43744;SDS011;29359;53.048;8.732;2022-11-18T01:59:31;8.20;;;6.60;;
43744;SDS011;29359;53.048;8.732;2022-11-18T02:01:36;7.25;;;6.53;;
43744;SDS011;29359;53.048;8.732;2022-11-18T02:03:37;9.60;;;7.25;;
43744;SDS011;29359;53.048;8.732;2022-11-18T02:05:40;10.38;;;6.85;;
43744;SDS011;29359;53.048;8.732;2022-11-18T02:07:43;7.80;;;6.60;;
43744;SDS011;29359;53.048;8.732;2022-11-18T02:09:45;8.13;;;6.63;;
43744;SDS011;29359;53.048;8.732;2022-11-18T02:11:47;7.07;;;6.15;;
43744;SDS011;29359;53.048;8.732;2022-11-18T02:13:51;7.68;;;6.10;;
43744;SDS011;29359;53.048;8.732;2022-11-18T02:16:07;7.40;;;6.10;;
43744;SDS011;29359;53.048;8.732;2022-11-18T02:18:20;6.43;;;5.60;;
43744;SDS011;29359;53.048;8.732;2022-11-18T02:20:31;9.50;;;5.88;;
43744;SDS011;29359;53.048;8.732;2022-11-18T02:32:09;5.53;;;5.00;;
43744;SDS011;29359;53.048;8.732;2022-11-18T02:36:16;5.47;;;4.97;;
43744;SDS011;29359;53.048;8.732;2022-11-18T02:40:29;5.43;;;4.82;;
43744;SDS011;29359;53.048;8.732;2022-11-18T02:42:34;4.93;;;4.43;;
43744;SDS011;29359;53.048;8.732;2022-11-18T02:44:39;5.18;;;4.25;;
43744;SDS011;29359;53.048;8.732;2022-11-18T02:46:46;5.07;;;4.55;;
43744;SDS011;29359;53.048;8.732;2022-11-18T02:48:52;4.45;;;4.15;;
43744;SDS011;29359;53.048;8.732;2022-11-18T02:50:56;5.45;;;4.15;;
43744;SDS011;29359;53.048;8.732;2022-11-18T02:52:58;4.55;;;4.15;;
43744;SDS011;29359;53.048;8.732;2022-11-18T02:55:03;5.13;;;4.63;;
43744;SDS011;29359;53.048;8.732;2022-11-18T02:57:09;5.00;;;4.53;;
43744;SDS011;29359;53.048;8.732;2022-11-18T02:59:16;5.03;;;4.50;;
43744;SDS011;29359;53.048;8.732;2022-11-18T03:01:21;4.85;;;4.35;;
43744;SDS011;29359;53.048;8.732;2022-11-18T03:03:31;5.43;;;4.65;;
43744;SDS011;29359;53.048;8.732;2022-11-18T03:05:40;5.15;;;4.65;;
43744;SDS011;29359;53.048;8.732;2022-11-18T03:07:50;5.97;;;4.40;;
43744;SDS011;29359;53.048;8.732;2022-11-18T03:10:01;5.28;;;4.30;;
43744;SDS011;29359;53.048;8.732;2022-11-18T03:12:11;4.22;;;3.83;;
43744;SDS011;29359;53.048;8.732;2022-11-18T03:16:24;3.78;;;3.47;;
43744;SDS011;29359;53.048;8.732;2022-11-18T03:20:45;4.50;;;4.13;;
43744;SDS011;29359;53.048;8.732;2022-11-18T03:22:53;3.70;;;3.40;;
43744;SDS011;29359;53.048;8.732;2022-11-18T03:25:08;5.40;;;4.30;;
43744;SDS011;29359;53.048;8.732;2022-11-18T03:29:24;4.72;;;4.32;;
43744;SDS011;29359;53.048;8.732;2022-11-18T03:31:34;4.70;;;4.30;;
43744;SDS011;29359;53.048;8.732;2022-11-18T03:33:42;4.55;;;4.15;;
43744;SDS011;29359;53.048;8.732;2022-11-18T03:35:52;4.80;;;3.63;;
43744;SDS011;29359;53.048;8.732;2022-11-18T03:37:56;5.03;;;4.53;;
43744;SDS011;29359;53.048;8.732;2022-11-18T03:40:26;5.07;;;4.28;;
43744;SDS011;29359;53.048;8.732;2022-11-18T03:42:39;7.63;;;5.10;;
43744;SDS011;29359;53.048;8.732;2022-11-18T03:44:47;5.15;;;4.65;;
43744;SDS011;29359;53.048;8.732;2022-11-18T03:46:58;4.80;;;4.40;;
43744;SDS011;29359;53.048;8.732;2022-11-18T03:49:04;5.50;;;5.00;;
43744;SDS011;29359;53.048;8.732;2022-11-18T03:51:10;5.60;;;5.07;;
43744;SDS011;29359;53.048;8.732;2022-11-18T03:53:16;6.55;;;4.75;;
43744;SDS011;29359;53.048;8.732;2022-11-18T03:55:24;6.13;;;5.22;;
43744;SDS011;29359;53.048;8.732;2022-11-18T03:57:44;6.80;;;5.50;;
43744;SDS011;29359;53.048;8.732;2022-11-18T03:59:49;5.97;;;5.38;;
43744;SDS011;29359;53.048;8.732;2022-11-18T04:01:55;7.53;;;6.10;;
43744;SDS011;29359;53.048;8.732;2022-11-18T04:04:11;7.97;;;6.00;;
43744;SDS011;29359;53.048;8.732;2022-11-18T04:08:36;7.38;;;6.22;;
43744;SDS011;29359;53.048;8.732;2022-11-18T04:10:45;7.47;;;6.18;;
43744;SDS011;29359;53.048;8.732;2022-11-18T04:15:35;7.50;;;6.57;;
43744;SDS011;29359;53.048;8.732;2022-11-18T04:17:39;8.88;;;7.15;;
43744;SDS011;29359;53.048;8.732;2022-11-18T04:19:42;8.63;;;6.82;;
43744;SDS011;29359;53.048;8.732;2022-11-18T04:21:44;7.75;;;6.78;;
43744;SDS011;29359;53.048;8.732;2022-11-18T04:23:48;9.95;;;6.88;;
43744;SDS011;29359;53.048;8.732;2022-11-18T04:25:49;7.25;;;6.55;;
43744;SDS011;29359;53.048;8.732;2022-11-18T04:27:51;8.98;;;6.60;;
43744;SDS011;29359;53.048;8.732;2022-11-18T04:29:52;8.77;;;7.50;;
43744;SDS011;29359;53.048;8.732;2022-11-18T04:31:54;11.02;;;7.53;;
43744;SDS011;29359;53.048;8.732;2022-11-18T04:33:55;10.48;;;7.60;;
43744;SDS011;29359;53.048;8.732;2022-11-18T04:35:57;10.50;;;7.88;;
43744;SDS011;29359;53.048;8.732;2022-11-18T04:37:58;10.25;;;7.57;;
43744;SDS011;29359;53.048;8.732;2022-11-18T04:40:00;11.23;;;8.35;;
43744;SDS011;29359;53.048;8.732;2022-11-18T04:42:01;11.10;;;8.70;;
43744;SDS011;29359;53.048;8.732;2022-11-18T04:44:03;15.48;;;8.27;;
43744;SDS011;29359;53.048;8.732;2022-11-18T04:46:13;11.02;;;8.25;;
43744;SDS011;29359;53.048;8.732;2022-11-18T04:48:14;10.15;;;7.93;;
43744;SDS011;29359;53.048;8.732;2022-11-18T04:50:16;12.05;;;8.45;;
43744;SDS011;29359;53.048;8.732;2022-11-18T04:52:17;10.70;;;7.82;;
43744;SDS011;29359;53.048;8.732;2022-11-18T04:54:19;13.10;;;8.00;;
43744;SDS011;29359;53.048;8.732;2022-11-18T04:56:21;13.63;;;8.07;;
43744;SDS011;29359;53.048;8.732;2022-11-18T04:58:23;12.52;;;8.93;;
43744;SDS011;29359;53.048;8.732;2022-11-18T05:00:24;11.90;;;8.43;;
43744;SDS011;29359;53.048;8.732;2022-11-18T05:02:26;11.10;;;8.50;;
43744;SDS011;29359;53.048;8.732;2022-11-18T05:04:28;11.10;;;8.35;;
43744;SDS011;29359;53.048;8.732;2022-11-18T05:06:31;9.43;;;8.27;;
43744;SDS011;29359;53.048;8.732;2022-11-18T05:08:34;8.93;;;7.78;;
43744;SDS011;29359;53.048;8.732;2022-11-18T05:10:36;9.93;;;7.93;;
43744;SDS011;29359;53.048;8.732;2022-11-18T05:12:38;9.90;;;7.70;;
43744;SDS011;29359;53.048;8.732;2022-11-18T05:14:49;8.50;;;7.40;;
43744;SDS011;29359;53.048;8.732;2022-11-18T05:16:51;8.95;;;7.45;;
43744;SDS011;29359;53.048;8.732;2022-11-18T05:18:53;13.73;;;7.53;;
43744;SDS011;29359;53.048;8.732;2022-11-18T05:20:55;12.73;;;7.90;;
43744;SDS011;29359;53.048;8.732;2022-11-18T05:22:56;13.63;;;8.88;;
43744;SDS011;29359;53.048;8.732;2022-11-18T05:24:57;11.48;;;8.95;;
43744;SDS011;29359;53.048;8.732;2022-11-18T05:26:59;11.55;;;8.90;;
43744;SDS011;29359;53.048;8.732;2022-11-18T05:29:00;12.60;;;9.23;;
43744;SDS011;29359;53.048;8.732;2022-11-18T05:31:08;10.18;;;8.23;;
43744;SDS011;29359;53.048;8.732;2022-11-18T05:33:14;13.52;;;8.82;;
43744;SDS011;29359;53.048;8.732;2022-11-18T05:35:15;12.43;;;8.93;;
43744;SDS011;29359;53.048;8.732;2022-11-18T05:37:17;15.00;;;8.60;;
43744;SDS011;29359;53.048;8.732;2022-11-18T05:39:18;12.77;;;9.38;;
43744;SDS011;29359;53.048;8.732;2022-11-18T05:41:20;11.23;;;8.10;;
43744;SDS011;29359;53.048;8.732;2022-11-18T05:43:40;12.73;;;8.75;;
43744;SDS011;29359;53.048;8.732;2022-11-18T05:45:42;11.48;;;8.95;;
43744;SDS011;29359;53.048;8.732;2022-11-18T05:47:44;11.20;;;8.90;;
43744;SDS011;29359;53.048;8.732;2022-11-18T05:50:01;13.95;;;9.15;;
43744;SDS011;29359;53.048;8.732;2022-11-18T05:52:02;12.10;;;9.50;;
43744;SDS011;29359;53.048;8.732;2022-11-18T05:54:05;16.85;;;9.48;;
43744;SDS011;29359;53.048;8.732;2022-11-18T05:56:15;14.02;;;9.63;;
43744;SDS011;29359;53.048;8.732;2022-11-18T05:58:18;14.43;;;10.15;;
43744;SDS011;29359;53.048;8.732;2022-11-18T06:00:19;14.57;;;9.15;;
43744;SDS011;29359;53.048;8.732;2022-11-18T06:02:21;13.55;;;9.73;;
43744;SDS011;29359;53.048;8.732;2022-11-18T06:04:29;13.95;;;10.40;;
43744;SDS011;29359;53.048;8.732;2022-11-18T06:06:35;15.27;;;9.90;;
43744;SDS011;29359;53.048;8.732;2022-11-18T06:08:38;14.15;;;9.85;;
43744;SDS011;29359;53.048;8.732;2022-11-18T06:10:46;14.50;;;10.05;;
43744;SDS011;29359;53.048;8.732;2022-11-18T06:12:50;13.95;;;10.25;;
43744;SDS011;29359;53.048;8.732;2022-11-18T06:14:57;16.00;;;10.65;;
43744;SDS011;29359;53.048;8.732;2022-11-18T06:17:03;14.73;;;10.07;;
43744;SDS011;29359;53.048;8.732;2022-11-18T06:19:09;13.20;;;9.43;;
43744;SDS011;29359;53.048;8.732;2022-11-18T06:21:10;13.18;;;9.85;;
43744;SDS011;29359;53.048;8.732;2022-11-18T06:23:12;13.05;;;9.57;;
43744;SDS011;29359;53.048;8.732;2022-11-18T06:25:14;13.63;;;10.75;;
43744;SDS011;29359;53.048;8.732;2022-11-18T06:27:16;18.63;;;10.40;;
43744;SDS011;29359;53.048;8.732;2022-11-18T06:29:19;13.70;;;9.95;;
43744;SDS011;29359;53.048;8.732;2022-11-18T06:31:27;14.73;;;10.20;;
43744;SDS011;29359;53.048;8.732;2022-11-18T06:33:29;13.60;;;10.23;;
43744;SDS011;29359;53.048;8.732;2022-11-18T06:35:30;14.85;;;10.65;;
43744;SDS011;29359;53.048;8.732;2022-11-18T06:37:32;14.65;;;10.85;;
43744;SDS011;29359;53.048;8.732;2022-11-18T06:39:35;13.93;;;10.45;;
43744;SDS011;29359;53.048;8.732;2022-11-18T06:41:37;13.95;;;10.35;;
43744;SDS011;29359;53.048;8.732;2022-11-18T06:43:39;14.95;;;10.85;;
43744;SDS011;29359;53.048;8.732;2022-11-18T06:45:41;13.95;;;10.35;;
43744;SDS011;29359;53.048;8.732;2022-11-18T06:48:09;12.85;;;9.75;;
43744;SDS011;29359;53.048;8.732;2022-11-18T06:50:10;15.93;;;11.27;;
43744;SDS011;29359;53.048;8.732;2022-11-18T06:52:12;14.80;;;10.68;;
43744;SDS011;29359;53.048;8.732;2022-11-18T06:54:13;14.68;;;10.00;;
43744;SDS011;29359;53.048;8.732;2022-11-18T06:56:15;13.43;;;9.73;;
43744;SDS011;29359;53.048;8.732;2022-11-18T06:58:18;13.23;;;10.50;;
43744;SDS011;29359;53.048;8.732;2022-11-18T07:00:19;14.50;;;10.95;;
43744;SDS011;29359;53.048;8.732;2022-11-18T07:02:21;13.70;;;10.40;;
43744;SDS011;29359;53.048;8.732;2022-11-18T07:04:23;13.65;;;10.27;;
43744;SDS011;29359;53.048;8.732;2022-11-18T07:06:25;13.77;;;10.60;;
43744;SDS011;29359;53.048;8.732;2022-11-18T07:08:28;11.90;;;9.68;;
43744;SDS011;29359;53.048;8.732;2022-11-18T07:10:30;14.25;;;10.23;;
43744;SDS011;29359;53.048;8.732;2022-11-18T07:12:31;15.00;;;10.68;;
43744;SDS011;29359;53.048;8.732;2022-11-18T07:14:32;13.23;;;10.18;;
43744;SDS011;29359;53.048;8.732;2022-11-18T07:16:34;14.45;;;10.82;;
43744;SDS011;29359;53.048;8.732;2022-11-18T07:18:37;12.38;;;9.98;;
43744;SDS011;29359;53.048;8.732;2022-11-18T07:20:40;14.90;;;10.43;;
43744;SDS011;29359;53.048;8.732;2022-11-18T07:22:42;14.18;;;10.40;;
43744;SDS011;29359;53.048;8.732;2022-11-18T07:24:43;17.63;;;12.00;;
43744;SDS011;29359;53.048;8.732;2022-11-18T07:26:45;13.50;;;11.02;;
43744;SDS011;29359;53.048;8.732;2022-11-18T07:28:47;14.68;;;10.88;;
43744;SDS011;29359;53.048;8.732;2022-11-18T07:30:49;15.07;;;11.60;;
43744;SDS011;29359;53.048;8.732;2022-11-18T07:32:50;16.10;;;11.02;;
43744;SDS011;29359;53.048;8.732;2022-11-18T07:34:52;21.38;;;11.75;;
43744;SDS011;29359;53.048;8.732;2022-11-18T07:36:53;18.65;;;12.00;;
43744;SDS011;29359;53.048;8.732;2022-11-18T07:38:57;16.85;;;11.63;;
43744;SDS011;29359;53.048;8.732;2022-11-18T07:41:10;15.00;;;11.27;;
43744;SDS011;29359;53.048;8.732;2022-11-18T07:43:13;16.08;;;11.57;;
43744;SDS011;29359;53.048;8.732;2022-11-18T07:45:14;15.98;;;11.40;;
43744;SDS011;29359;53.048;8.732;2022-11-18T07:47:16;19.40;;;12.57;;
43744;SDS011;29359;53.048;8.732;2022-11-18T07:49:17;18.10;;;12.10;;
43744;SDS011;29359;53.048;8.732;2022-11-18T07:51:20;16.75;;;11.98;;
43744;SDS011;29359;53.048;8.732;2022-11-18T07:53:23;17.88;;;12.18;;
43744;SDS011;29359;53.048;8.732;2022-11-18T07:55:25;14.55;;;11.52;;
43744;SDS011;29359;53.048;8.732;2022-11-18T07:57:32;16.55;;;11.40;;
43744;SDS011;29359;53.048;8.732;2022-11-18T07:59:33;16.80;;;11.98;;
43744;SDS011;29359;53.048;8.732;2022-11-18T08:01:35;16.42;;;11.77;;
43744;SDS011;29359;53.048;8.732;2022-11-18T08:03:36;15.15;;;10.98;;
43744;SDS011;29359;53.048;8.732;2022-11-18T08:05:38;15.70;;;10.90;;
43744;SDS011;29359;53.048;8.732;2022-11-18T08:07:40;18.77;;;11.80;;
43744;SDS011;29359;53.048;8.732;2022-11-18T08:09:41;16.25;;;12.10;;
43744;SDS011;29359;53.048;8.732;2022-11-18T08:11:43;14.63;;;11.60;;
43744;SDS011;29359;53.048;8.732;2022-11-18T08:13:44;15.70;;;11.50;;
43744;SDS011;29359;53.048;8.732;2022-11-18T08:15:46;19.50;;;12.27;;
43744;SDS011;29359;53.048;8.732;2022-11-18T08:17:47;17.85;;;12.60;;
43744;SDS011;29359;53.048;8.732;2022-11-18T08:19:49;18.27;;;12.10;;
43744;SDS011;29359;53.048;8.732;2022-11-18T08:21:50;17.20;;;11.50;;
43744;SDS011;29359;53.048;8.732;2022-11-18T08:23:53;16.33;;;11.55;;
43744;SDS011;29359;53.048;8.732;2022-11-18T08:26:03;17.42;;;11.82;;
43744;SDS011;29359;53.048;8.732;2022-11-18T08:28:07;16.05;;;11.15;;
43744;SDS011;29359;53.048;8.732;2022-11-18T08:30:09;24.73;;;13.18;;
43744;SDS011;29359;53.048;8.732;2022-11-18T08:32:11;15.20;;;11.80;;
43744;SDS011;29359;53.048;8.732;2022-11-18T08:34:12;16.10;;;12.00;;
43744;SDS011;29359;53.048;8.732;2022-11-18T08:36:16;17.42;;;11.90;;
43744;SDS011;29359;53.048;8.732;2022-11-18T08:38:20;18.13;;;12.35;;
43744;SDS011;29359;53.048;8.732;2022-11-18T08:40:22;24.85;;;15.10;;
43744;SDS011;29359;53.048;8.732;2022-11-18T08:42:24;21.38;;;13.25;;
43744;SDS011;29359;53.048;8.732;2022-11-18T08:46:34;16.52;;;12.52;;
43744;SDS011;29359;53.048;8.732;2022-11-18T08:48:36;18.15;;;12.63;;
43744;SDS011;29359;53.048;8.732;2022-11-18T08:50:37;21.67;;;13.90;;
43744;SDS011;29359;53.048;8.732;2022-11-18T08:52:39;25.33;;;14.18;;
43744;SDS011;29359;53.048;8.732;2022-11-18T08:54:40;17.88;;;13.27;;
43744;SDS011;29359;53.048;8.732;2022-11-18T08:56:42;20.08;;;14.13;;
43744;SDS011;29359;53.048;8.732;2022-11-18T08:58:43;68.90;;;15.70;;
43744;SDS011;29359;53.048;8.732;2022-11-18T09:00:45;19.98;;;13.63;;
43744;SDS011;29359;53.048;8.732;2022-11-18T09:02:46;22.67;;;13.52;;
43744;SDS011;29359;53.048;8.732;2022-11-18T09:04:48;23.73;;;14.02;;
43744;SDS011;29359;53.048;8.732;2022-11-18T09:06:52;19.88;;;14.20;;
43744;SDS011;29359;53.048;8.732;2022-11-18T09:08:54;20.33;;;14.10;;
43744;SDS011;29359;53.048;8.732;2022-11-18T09:10:55;27.35;;;13.82;;
43744;SDS011;29359;53.048;8.732;2022-11-18T09:12:57;24.58;;;13.70;;
43744;SDS011;29359;53.048;8.732;2022-11-18T09:15:18;18.92;;;13.60;;
43744;SDS011;29359;53.048;8.732;2022-11-18T09:17:20;20.08;;;13.85;;
43744;SDS011;29359;53.048;8.732;2022-11-18T09:19:22;22.92;;;15.20;;
43744;SDS011;29359;53.048;8.732;2022-11-18T09:21:44;27.60;;;15.23;;
43744;SDS011;29359;53.048;8.732;2022-11-18T09:23:46;21.55;;;15.43;;
43744;SDS011;29359;53.048;8.732;2022-11-18T09:25:48;31.95;;;15.25;;
43744;SDS011;29359;53.048;8.732;2022-11-18T09:27:56;25.10;;;15.13;;
43744;SDS011;29359;53.048;8.732;2022-11-18T09:29:58;22.63;;;15.10;;
43744;SDS011;29359;53.048;8.732;2022-11-18T09:32:00;22.02;;;16.10;;
43744;SDS011;29359;53.048;8.732;2022-11-18T09:34:02;22.30;;;15.23;;
43744;SDS011;29359;53.048;8.732;2022-11-18T09:36:04;24.15;;;15.93;;
43744;SDS011;29359;53.048;8.732;2022-11-18T09:38:11;40.70;;;18.60;;
43744;SDS011;29359;53.048;8.732;2022-11-18T09:40:13;29.40;;;15.52;;
43744;SDS011;29359;53.048;8.732;2022-11-18T09:42:27;27.50;;;15.93;;
43744;SDS011;29359;53.048;8.732;2022-11-18T09:49:34;25.77;;;15.90;;
43744;SDS011;29359;53.048;8.732;2022-11-18T09:51:40;33.08;;;16.25;;
43744;SDS011;29359;53.048;8.732;2022-11-18T09:53:46;27.17;;;17.23;;
43744;SDS011;29359;53.048;8.732;2022-11-18T09:55:49;24.17;;;16.58;;
43744;SDS011;29359;53.048;8.732;2022-11-18T09:57:53;43.78;;;18.48;;
43744;SDS011;29359;53.048;8.732;2022-11-18T09:59:56;27.15;;;17.10;;
43744;SDS011;29359;53.048;8.732;2022-11-18T10:02:02;23.52;;;15.65;;
43744;SDS011;29359;53.048;8.732;2022-11-18T10:04:14;26.50;;;17.23;;
43744;SDS011;29359;53.048;8.732;2022-11-18T10:06:25;23.58;;;16.20;;
43744;SDS011;29359;53.048;8.732;2022-11-18T10:09:16;27.67;;;16.85;;
43744;SDS011;29359;53.048;8.732;2022-11-18T10:13:21;29.38;;;17.88;;
43744;SDS011;29359;53.048;8.732;2022-11-18T10:15:43;27.48;;;17.60;;
43744;SDS011;29359;53.048;8.732;2022-11-18T10:18:10;27.50;;;18.17;;
43744;SDS011;29359;53.048;8.732;2022-11-18T10:20:58;25.67;;;17.00;;
43744;SDS011;29359;53.048;8.732;2022-11-18T10:25:13;33.50;;;18.55;;
43744;SDS011;29359;53.048;8.732;2022-11-18T10:27:16;29.58;;;18.02;;
43744;SDS011;29359;53.048;8.732;2022-11-18T10:29:19;25.60;;;16.58;;
43744;SDS011;29359;53.048;8.732;2022-11-18T10:31:20;27.80;;;18.00;;
43744;SDS011;29359;53.048;8.732;2022-11-18T10:35:33;25.13;;;17.05;;
43744;SDS011;29359;53.048;8.732;2022-11-18T10:37:37;24.60;;;15.35;;
43744;SDS011;29359;53.048;8.732;2022-11-18T10:40:00;23.65;;;15.88;;
43744;SDS011;29359;53.048;8.732;2022-11-18T10:42:04;22.80;;;15.30;;
43744;SDS011;29359;53.048;8.732;2022-11-18T10:44:24;22.73;;;15.20;;
43744;SDS011;29359;53.048;8.732;2022-11-18T10:46:31;21.38;;;15.55;;
43744;SDS011;29359;53.048;8.732;2022-11-18T10:48:39;26.08;;;16.55;;
43744;SDS011;29359;53.048;8.732;2022-11-18T10:50:44;24.38;;;16.10;;
43744;SDS011;29359;53.048;8.732;2022-11-18T10:52:56;21.30;;;15.90;;
43744;SDS011;29359;53.048;8.732;2022-11-18T10:57:18;21.23;;;15.20;;
43744;SDS011;29359;53.048;8.732;2022-11-18T11:01:28;24.65;;;15.68;;
43744;SDS011;29359;53.048;8.732;2022-11-18T11:03:31;22.45;;;15.50;;
43744;SDS011;29359;53.048;8.732;2022-11-18T11:05:35;22.92;;;15.45;;
43744;SDS011;29359;53.048;8.732;2022-11-18T11:07:36;20.80;;;14.63;;
43744;SDS011;29359;53.048;8.732;2022-11-18T11:09:38;20.45;;;15.18;;
43744;SDS011;29359;53.048;8.732;2022-11-18T11:13:45;22.23;;;15.27;;
43744;SDS011;29359;53.048;8.732;2022-11-18T11:15:46;21.17;;;15.52;;
43744;SDS011;29359;53.048;8.732;2022-11-18T11:18:13;19.05;;;14.15;;
43744;SDS011;29359;53.048;8.732;2022-11-18T11:20:39;21.70;;;14.85;;
43744;SDS011;29359;53.048;8.732;2022-11-18T11:22:41;21.17;;;14.50;;
43744;SDS011;29359;53.048;8.732;2022-11-18T11:24:43;21.65;;;14.63;;
43744;SDS011;29359;53.048;8.732;2022-11-18T11:31:32;20.85;;;14.80;;
43744;SDS011;29359;53.048;8.732;2022-11-18T11:49:59;18.48;;;13.07;;
43744;SDS011;29359;53.048;8.732;2022-11-18T12:00:05;16.95;;;12.23;;
43744;SDS011;29359;53.048;8.732;2022-11-18T12:04:34;17.90;;;12.85;;
43744;SDS011;29359;53.048;8.732;2022-11-18T12:06:37;14.07;;;11.13;;
43744;SDS011;29359;53.048;8.732;2022-11-18T12:08:46;15.13;;;11.80;;
43744;SDS011;29359;53.048;8.732;2022-11-18T12:18:17;15.98;;;11.05;;
43744;SDS011;29359;53.048;8.732;2022-11-18T12:25:42;14.85;;;12.43;;
43744;SDS011;29359;53.048;8.732;2022-11-18T12:29:57;15.50;;;12.60;;
43744;SDS011;29359;53.048;8.732;2022-11-18T12:32:02;13.77;;;11.68;;
43744;SDS011;29359;53.048;8.732;2022-11-18T12:34:04;14.05;;;11.20;;
43744;SDS011;29359;53.048;8.732;2022-11-18T12:38:28;14.25;;;11.20;;
43744;SDS011;29359;53.048;8.732;2022-11-18T12:40:44;13.68;;;11.52;;
43744;SDS011;29359;53.048;8.732;2022-11-18T12:42:53;15.40;;;12.32;;
43744;SDS011;29359;53.048;8.732;2022-11-18T12:54:45;16.15;;;12.43;;
43744;SDS011;29359;53.048;8.732;2022-11-18T12:56:49;15.38;;;12.13;;
43744;SDS011;29359;53.048;8.732;2022-11-18T12:58:54;16.30;;;13.32;;
43744;SDS011;29359;53.048;8.732;2022-11-18T13:01:05;16.13;;;12.57;;
43744;SDS011;29359;53.048;8.732;2022-11-18T13:03:08;15.82;;;12.55;;
43744;SDS011;29359;53.048;8.732;2022-11-18T13:05:11;15.65;;;12.40;;
43744;SDS011;29359;53.048;8.732;2022-11-18T13:07:19;15.68;;;12.65;;
43744;SDS011;29359;53.048;8.732;2022-11-18T13:09:39;16.67;;;13.07;;
43744;SDS011;29359;53.048;8.732;2022-11-18T13:11:53;18.58;;;13.35;;
43744;SDS011;29359;53.048;8.732;2022-11-18T13:13:56;18.75;;;14.07;;
43744;SDS011;29359;53.048;8.732;2022-11-18T13:16:20;22.02;;;13.45;;
43744;SDS011;29359;53.048;8.732;2022-11-18T13:18:49;17.20;;;13.55;;
43744;SDS011;29359;53.048;8.732;2022-11-18T13:20:53;18.70;;;13.88;;
43744;SDS011;29359;53.048;8.732;2022-11-18T13:23:23;18.05;;;13.45;;
43744;SDS011;29359;53.048;8.732;2022-11-18T13:25:48;21.42;;;14.38;;
43744;SDS011;29359;53.048;8.732;2022-11-18T13:27:54;19.23;;;14.10;;
43744;SDS011;29359;53.048;8.732;2022-11-18T13:32:25;22.77;;;15.88;;
43744;SDS011;29359;53.048;8.732;2022-11-18T13:34:28;18.90;;;13.98;;
43744;SDS011;29359;53.048;8.732;2022-11-18T13:36:31;19.02;;;14.57;;
43744;SDS011;29359;53.048;8.732;2022-11-18T13:38:33;20.90;;;14.82;;
43744;SDS011;29359;53.048;8.732;2022-11-18T13:40:42;19.38;;;14.85;;
43744;SDS011;29359;53.048;8.732;2022-11-18T13:43:04;22.48;;;14.82;;
43744;SDS011;29359;53.048;8.732;2022-11-18T13:45:11;21.05;;;15.52;;
43744;SDS011;29359;53.048;8.732;2022-11-18T13:51:53;18.40;;;14.50;;
43744;SDS011;29359;53.048;8.732;2022-11-18T13:53:56;18.88;;;14.82;;
43744;SDS011;29359;53.048;8.732;2022-11-18T13:56:02;17.92;;;13.43;;
43744;SDS011;29359;53.048;8.732;2022-11-18T14:00:23;18.20;;;14.27;;
43744;SDS011;29359;53.048;8.732;2022-11-18T14:02:27;19.57;;;14.93;;
43744;SDS011;29359;53.048;8.732;2022-11-18T14:04:29;17.90;;;13.95;;
43744;SDS011;29359;53.048;8.732;2022-11-18T14:06:33;22.15;;;14.90;;
43744;SDS011;29359;53.048;8.732;2022-11-18T14:08:35;17.75;;;13.98;;
43744;SDS011;29359;53.048;8.732;2022-11-18T14:10:42;42.80;;;15.00;;
43744;SDS011;29359;53.048;8.732;2022-11-18T14:12:45;19.70;;;14.13;;
43744;SDS011;29359;53.048;8.732;2022-11-18T14:17:23;20.52;;;15.02;;